createdAt,value
2018-11-28T00:01:42.006Z,0.37
2018-11-28T00:04:45.973Z,0.28
2018-11-28T00:07:50.130Z,0.33
2018-11-28T00:10:54.096Z,0.31
2018-11-28T00:13:58.054Z,0.35
2018-11-28T00:17:02.020Z,0.29
2018-11-28T00:20:10.015Z,0.21
2018-11-28T00:23:14.163Z,0.23
2018-11-28T00:26:18.134Z,0.22
2018-11-28T00:29:22.101Z,0.21
2018-11-28T00:32:26.084Z,0.16
2018-11-28T00:35:30.062Z,0.19
2018-11-28T00:38:34.046Z,0.20
2018-11-28T00:41:38.011Z,0.16
2018-11-28T00:44:41.987Z,0.12
2018-11-28T00:47:46.321Z,0.06
2018-11-28T00:50:50.287Z,0.06
2018-11-28T00:53:54.599Z,0.06
2018-11-28T00:56:58.571Z,-0.03
2018-11-28T01:00:02.531Z,0.05
2018-11-28T01:03:06.501Z,-0.01
2018-11-28T01:06:10.483Z,-0.01
2018-11-28T01:09:14.453Z,0.04
2018-11-28T01:12:18.617Z,-0.04
2018-11-28T01:15:22.938Z,-0.12
2018-11-28T01:18:26.923Z,-0.14
2018-11-28T01:21:31.071Z,-0.15
2018-11-28T01:24:35.043Z,-0.13
2018-11-28T01:27:39.027Z,-0.21
2018-11-28T01:30:43.002Z,-0.20
2018-11-28T01:33:46.971Z,-0.20
2018-11-28T01:36:50.946Z,-0.27
2018-11-28T01:39:54.936Z,-0.26
2018-11-28T01:42:59.094Z,-0.23
2018-11-28T01:46:03.066Z,-0.28
2018-11-28T01:49:07.055Z,-0.39
2018-11-28T01:52:11.040Z,-0.32
2018-11-28T01:55:16.622Z,-0.30
2018-11-28T01:58:20.585Z,-0.39
2018-11-28T02:01:24.566Z,-0.42
2018-11-28T02:04:29.042Z,-0.40
2018-11-28T02:07:33.022Z,-0.41
2018-11-28T02:10:37.006Z,-0.34
2018-11-28T02:13:41.005Z,-0.35
2018-11-28T02:16:44.978Z,-0.53
2018-11-28T02:19:48.958Z,-0.57
2018-11-28T02:22:52.945Z,-0.51
2018-11-28T02:25:57.259Z,-0.59
2018-11-28T02:29:01.252Z,-0.54
2018-11-28T02:32:05.268Z,-0.54
2018-11-28T02:35:10.568Z,-0.64
2018-11-28T02:38:14.547Z,-0.55
2018-11-28T02:41:18.529Z,-0.56
2018-11-28T02:44:22.498Z,-0.50
2018-11-28T02:47:26.688Z,-0.46
2018-11-28T02:50:30.676Z,-0.42
2018-11-28T02:53:35.356Z,-0.54
2018-11-28T02:56:39.521Z,-0.59
2018-11-28T02:59:43.683Z,-0.72
2018-11-28T03:02:47.694Z,-0.61
2018-11-28T03:05:51.653Z,-0.65
2018-11-28T03:08:55.820Z,-0.60
2018-11-28T03:11:59.970Z,-0.66
2018-11-28T03:15:04.246Z,-0.67
2018-11-28T03:18:08.690Z,-0.66
2018-11-28T03:21:12.683Z,-0.77
2018-11-28T03:24:16.691Z,-0.67
2018-11-28T03:27:20.847Z,-0.68
2018-11-28T03:30:32.691Z,-0.66
2018-11-28T03:33:36.660Z,-0.79
2018-11-28T03:36:40.831Z,-0.74
2018-11-28T03:39:44.807Z,-0.74
2018-11-28T03:42:48.784Z,-0.83
2018-11-28T03:45:52.934Z,-0.85
2018-11-28T03:48:56.906Z,-0.88
2018-11-28T03:52:00.891Z,-0.78
2018-11-28T03:55:06.819Z,-0.81
2018-11-28T03:58:11.022Z,-0.86
2018-11-28T04:01:15.167Z,-0.76
2018-11-28T04:04:19.318Z,-0.74
2018-11-28T04:07:23.298Z,-0.80
2018-11-28T04:10:27.294Z,-0.84
2018-11-28T04:13:31.441Z,-0.91
2018-11-28T04:16:35.433Z,-0.84
2018-11-28T04:19:39.586Z,-0.86
2018-11-28T04:22:43.575Z,-0.90
2018-11-28T04:25:47.560Z,-0.89
2018-11-28T04:28:51.522Z,-0.81
2018-11-28T04:31:57.085Z,-0.99
2018-11-28T04:35:01.072Z,-0.88
2018-11-28T04:38:05.235Z,-0.89
2018-11-28T04:41:09.400Z,-0.98
2018-11-28T04:44:13.367Z,-0.97
2018-11-28T04:47:17.338Z,-0.99
2018-11-28T04:50:21.487Z,-0.86
2018-11-28T04:53:25.451Z,-1.06
2018-11-28T04:56:29.620Z,-1.00
2018-11-28T04:59:33.587Z,-1.08
2018-11-28T05:02:37.559Z,-1.11
2018-11-28T05:05:41.542Z,-1.10
2018-11-28T05:08:45.670Z,-1.07
2018-11-28T05:11:49.675Z,-1.04
2018-11-28T05:14:53.638Z,-1.00
2018-11-28T05:17:57.630Z,-1.07
2018-11-28T05:21:01.792Z,-1.13
2018-11-28T05:24:05.763Z,-1.16
2018-11-28T05:27:09.748Z,-1.14
2018-11-28T05:30:15.571Z,-1.19
2018-11-28T05:33:19.735Z,-1.16
2018-11-28T05:36:23.738Z,-1.12
2018-11-28T05:39:27.715Z,-1.23
2018-11-28T05:42:31.686Z,-1.17
2018-11-28T05:45:35.677Z,-1.13
2018-11-28T05:48:39.650Z,-1.25
2018-11-28T05:51:43.622Z,-1.25
2018-11-28T05:54:47.625Z,-1.17
2018-11-28T05:57:51.596Z,-1.20
2018-11-28T06:00:55.751Z,-1.35
2018-11-28T06:03:59.725Z,-1.30
2018-11-28T06:07:03.715Z,-1.31
2018-11-28T06:10:08.330Z,-1.24
2018-11-28T06:13:12.319Z,-1.20
2018-11-28T06:16:16.626Z,-1.13
2018-11-28T06:19:20.630Z,-1.21
2018-11-28T06:22:25.016Z,-1.23
2018-11-28T06:25:29.001Z,-1.25
2018-11-28T06:28:32.978Z,-1.34
2018-11-28T06:31:36.967Z,-1.39
2018-11-28T06:34:40.938Z,-1.33
2018-11-28T06:37:44.922Z,-1.36
2018-11-28T06:40:48.890Z,-1.28
2018-11-28T06:43:52.859Z,-1.32
2018-11-28T06:46:57.002Z,-1.30
2018-11-28T06:50:00.984Z,-1.37
2018-11-28T06:53:05.370Z,-1.41
2018-11-28T06:56:09.333Z,-1.39
2018-11-28T06:59:13.478Z,-1.42
2018-11-28T07:02:17.442Z,-1.37
2018-11-28T07:05:22.168Z,-1.43
2018-11-28T07:08:26.126Z,-1.54
2018-11-28T07:11:30.098Z,-1.41
2018-11-28T07:14:34.249Z,-1.37
2018-11-28T07:17:38.435Z,-1.31
2018-11-28T07:20:42.386Z,-1.39
2018-11-28T07:23:46.540Z,-1.43
2018-11-28T07:26:50.683Z,-1.36
2018-11-28T07:29:54.642Z,-1.36
2018-11-28T07:32:58.698Z,-1.43
2018-11-28T07:36:02.671Z,-1.49
2018-11-28T07:39:06.868Z,-1.49
2018-11-28T07:42:11.010Z,-1.47
2018-11-28T07:45:15.318Z,-1.50
2018-11-28T07:48:19.266Z,-1.54
2018-11-28T07:51:23.222Z,-1.53
2018-11-28T07:54:27.188Z,-1.54
2018-11-28T07:57:31.330Z,-1.38
2018-11-28T08:00:36.183Z,-1.21
2018-11-28T08:03:40.146Z,-1.13
2018-11-28T08:06:44.098Z,-1.00
2018-11-28T08:09:48.050Z,-0.95
2018-11-28T08:12:55.211Z,-0.89
2018-11-28T08:15:59.594Z,-0.86
2018-11-28T08:19:03.557Z,-0.86
2018-11-28T08:22:07.851Z,-0.86
2018-11-28T08:25:13.825Z,-0.81
2018-11-28T08:28:17.802Z,-0.77
2018-11-28T08:31:22.114Z,-0.70
2018-11-28T08:34:26.085Z,-0.69
2018-11-28T08:37:30.055Z,-0.71
2018-11-28T08:40:34.194Z,-0.71
2018-11-28T08:43:38.163Z,-0.66
2018-11-28T08:46:42.123Z,-0.63
2018-11-28T08:49:46.078Z,-0.56
2018-11-28T08:52:50.038Z,-0.50
2018-11-28T08:55:53.994Z,-0.51
2018-11-28T08:58:57.964Z,-0.47
2018-11-28T09:02:01.921Z,-0.41
2018-11-28T09:05:06.221Z,-0.35
2018-11-28T09:08:10.186Z,-0.38
2018-11-28T09:11:14.165Z,-0.34
2018-11-28T09:14:18.112Z,-0.32
2018-11-28T09:17:22.277Z,-0.27
2018-11-28T09:20:26.565Z,-0.27
2018-11-28T09:23:30.854Z,-0.25
2018-11-28T09:26:34.826Z,-0.16
2018-11-28T09:29:38.799Z,-0.13
2018-11-28T09:32:43.014Z,-0.14
2018-11-28T09:35:46.991Z,-0.15
2018-11-28T09:38:50.954Z,-0.15
2018-11-28T09:41:54.922Z,-0.13
2018-11-28T09:44:58.885Z,-0.11
2018-11-28T09:48:03.187Z,-0.09
2018-11-28T09:51:07.950Z,-0.02
2018-11-28T09:54:11.918Z,-0.04
2018-11-28T09:57:15.878Z,0.09
2018-11-28T10:00:21.615Z,0.08
2018-11-28T10:03:25.574Z,0.15
2018-11-28T10:06:29.533Z,0.11
2018-11-28T10:09:33.496Z,0.16
2018-11-28T10:12:37.776Z,0.14
2018-11-28T10:15:41.721Z,0.16
2018-11-28T10:18:45.695Z,0.15
2018-11-28T10:21:49.655Z,0.11
2018-11-28T10:24:53.805Z,0.17
2018-11-28T10:28:03.218Z,0.17
2018-11-28T10:31:07.211Z,0.16
2018-11-28T10:34:11.192Z,0.19
2018-11-28T10:37:15.586Z,0.24
2018-11-28T10:40:20.960Z,0.24
2018-11-28T10:43:25.246Z,0.24
2018-11-28T10:46:29.200Z,0.24
2018-11-28T10:49:33.336Z,0.27
2018-11-28T10:52:37.365Z,0.38
2018-11-28T10:55:41.662Z,0.35
2018-11-28T10:58:45.631Z,0.33
2018-11-28T11:01:51.759Z,0.38
2018-11-28T11:05:01.117Z,0.41
2018-11-28T11:08:10.534Z,0.48
2018-11-28T11:11:20.006Z,0.50
2018-11-28T11:14:29.467Z,0.48
2018-11-28T11:17:33.426Z,0.48
2018-11-28T11:20:37.626Z,0.52
2018-11-28T11:23:41.618Z,0.52
2018-11-28T11:26:45.574Z,0.53
2018-11-28T11:29:49.538Z,0.59
2018-11-28T11:32:53.507Z,0.59
2018-11-28T11:35:57.453Z,0.68
2018-11-28T11:39:01.414Z,0.64
2018-11-28T11:42:06.008Z,0.63
2018-11-28T11:45:11.570Z,0.71
2018-11-28T11:48:15.508Z,0.64
2018-11-28T11:51:19.643Z,0.74
2018-11-28T11:54:23.593Z,0.69
2018-11-28T11:57:27.586Z,0.68
2018-11-28T12:00:32.071Z,0.70
2018-11-28T12:03:36.208Z,0.73
2018-11-28T12:06:40.167Z,0.75
2018-11-28T12:09:44.124Z,0.70
2018-11-28T12:12:51.715Z,0.73
2018-11-28T12:15:58.763Z,0.76
2018-11-28T12:19:03.229Z,0.77
2018-11-28T12:22:07.594Z,0.76
2018-11-28T12:25:12.322Z,0.79
2018-11-28T12:28:16.281Z,0.82
2018-11-28T12:31:20.247Z,0.80
2018-11-28T12:34:24.211Z,0.77
2018-11-28T12:37:28.193Z,0.73
2018-11-28T12:40:37.003Z,0.72
2018-11-28T12:43:41.290Z,0.76
2018-11-28T12:46:45.255Z,0.76
2018-11-28T12:49:49.227Z,0.74
2018-11-28T12:52:54.629Z,0.76
2018-11-28T12:56:05.795Z,0.86
2018-11-28T12:59:09.758Z,0.88
2018-11-28T13:02:13.710Z,0.90
2018-11-28T13:05:20.721Z,0.88
2018-11-28T13:08:24.692Z,0.92
2018-11-28T13:11:28.659Z,0.84
2018-11-28T13:14:32.627Z,0.87
2018-11-28T13:17:36.610Z,0.95
2018-11-28T13:20:41.926Z,0.90
2018-11-28T13:23:45.887Z,0.98
2018-11-28T13:26:50.031Z,0.95
2018-11-28T13:29:53.998Z,0.97
2018-11-28T13:32:57.964Z,0.98
2018-11-28T13:36:01.950Z,0.98
2018-11-28T13:39:06.842Z,1.02
2018-11-28T13:42:10.992Z,1.12
2018-11-28T13:45:18.941Z,1.07
2018-11-28T13:48:22.913Z,1.03
2018-11-28T13:51:26.878Z,1.09
2018-11-28T13:54:30.834Z,1.09
2018-11-28T13:57:34.807Z,1.06
2018-11-28T14:00:38.954Z,1.04
2018-11-28T14:03:42.930Z,1.06
2018-11-28T14:06:46.902Z,1.04
2018-11-28T14:09:50.889Z,1.07
2018-11-28T14:12:55.202Z,1.06
2018-11-28T14:15:59.170Z,1.02
2018-11-28T14:19:03.148Z,1.04
2018-11-28T14:22:07.441Z,1.08
2018-11-28T14:25:12.883Z,1.09
2018-11-28T14:28:17.205Z,1.14
2018-11-28T14:31:21.167Z,1.15
2018-11-28T14:34:25.477Z,1.01
2018-11-28T14:37:29.443Z,1.05
2018-11-28T14:40:34.095Z,1.00
2018-11-28T14:43:38.066Z,0.99
2018-11-28T14:46:42.029Z,1.00
2018-11-28T14:49:45.999Z,0.96
2018-11-28T14:52:50.046Z,1.00
2018-11-28T14:55:54.019Z,0.96
2018-11-28T14:58:57.990Z,0.95
2018-11-28T15:02:02.282Z,0.88
2018-11-28T15:05:12.270Z,0.95
2018-11-28T15:08:17.889Z,0.95
2018-11-28T15:11:21.858Z,0.91
2018-11-28T15:14:25.885Z,0.91
2018-11-28T15:17:29.800Z,0.91
2018-11-28T15:20:33.946Z,0.91
2018-11-28T15:23:38.385Z,0.85
2018-11-28T15:26:42.354Z,0.92
2018-11-28T15:29:46.333Z,0.86
2018-11-28T15:32:50.306Z,0.82
2018-11-28T15:35:54.300Z,0.77
2018-11-28T15:38:58.448Z,0.75
2018-11-28T15:42:02.411Z,0.73
2018-11-28T15:45:08.123Z,0.71
2018-11-28T15:48:12.236Z,0.68
2018-11-28T15:51:16.207Z,0.71
2018-11-28T15:54:20.173Z,0.76
2018-11-28T15:57:24.330Z,0.73
2018-11-28T16:00:28.285Z,0.68
2018-11-28T16:03:32.923Z,0.57
2018-11-28T16:06:36.883Z,0.58
2018-11-28T16:09:46.115Z,0.62
2018-11-28T16:12:50.763Z,0.53
2018-11-28T16:15:56.047Z,0.52
2018-11-28T16:19:00.012Z,0.62
2018-11-28T16:22:04.547Z,0.55
2018-11-28T16:25:10.282Z,0.51
2018-11-28T16:28:14.262Z,0.57
2018-11-28T16:31:18.414Z,0.54
2018-11-28T16:34:22.715Z,0.63
2018-11-28T16:37:27.050Z,0.59
2018-11-28T16:40:31.367Z,0.60
2018-11-28T16:43:35.327Z,0.54
2018-11-28T16:46:39.309Z,0.57
2018-11-28T16:49:43.265Z,0.62
2018-11-28T16:52:47.828Z,0.60
2018-11-28T16:55:51.792Z,0.61
2018-11-28T16:58:55.929Z,0.62
2018-11-28T17:01:59.910Z,0.59
2018-11-28T17:05:04.495Z,0.56
2018-11-28T17:08:09.521Z,0.52
2018-11-28T17:11:13.663Z,0.51
2018-11-28T17:14:17.634Z,0.51
2018-11-28T17:17:21.610Z,0.55
2018-11-28T17:20:26.826Z,0.55
2018-11-28T17:23:30.794Z,0.57
2018-11-28T17:26:34.758Z,0.56
2018-11-28T17:29:38.730Z,0.49
2018-11-28T17:32:42.726Z,0.50
2018-11-28T17:35:46.663Z,0.61
2018-11-28T17:38:50.631Z,0.58
2018-11-28T17:41:54.786Z,0.60
2018-11-28T17:44:58.758Z,0.65
2018-11-28T17:48:03.066Z,0.57
2018-11-28T17:51:07.031Z,0.54
2018-11-28T17:54:11.006Z,0.58
2018-11-28T17:57:15.141Z,0.60
2018-11-28T18:00:20.306Z,0.62
2018-11-28T18:03:24.439Z,0.62
2018-11-28T18:06:28.402Z,0.65
2018-11-28T18:09:32.358Z,0.63
2018-11-28T18:12:36.319Z,0.66
2018-11-28T18:15:48.158Z,0.65
2018-11-28T18:18:52.126Z,0.63
2018-11-28T18:21:56.152Z,0.67
2018-11-28T18:25:00.387Z,0.72
2018-11-28T18:28:04.689Z,0.67
2018-11-28T18:31:08.477Z,0.69
2018-11-28T18:34:12.446Z,0.68
2018-11-28T18:37:16.430Z,0.70
2018-11-28T18:40:20.401Z,0.69
2018-11-28T18:43:24.535Z,0.69
2018-11-28T18:46:28.532Z,0.67
2018-11-28T18:49:32.685Z,0.70
2018-11-28T18:52:36.687Z,0.69
2018-11-28T18:55:40.658Z,0.68
2018-11-28T18:58:44.613Z,0.77
2018-11-28T19:01:50.290Z,0.76
2018-11-28T19:04:54.602Z,0.75
2018-11-28T19:07:58.562Z,0.76
2018-11-28T19:11:03.115Z,0.75
2018-11-28T19:14:12.199Z,0.74
2018-11-28T19:17:11.350Z,0.79
2018-11-28T19:20:16.441Z,0.77
2018-11-28T19:23:20.399Z,0.78
2018-11-28T19:26:24.396Z,0.82
2018-11-28T19:29:28.373Z,0.76
2018-11-28T19:32:32.655Z,0.80
2018-11-28T19:35:36.657Z,0.79
2018-11-28T19:38:40.610Z,0.74
2018-11-28T19:41:44.570Z,0.77
2018-11-28T19:44:48.531Z,0.77
2018-11-28T19:47:52.491Z,0.75
2018-11-28T19:50:56.626Z,0.73
2018-11-28T19:54:00.592Z,0.81
2018-11-28T19:57:04.558Z,0.80
2018-11-28T20:00:15.241Z,0.77
2018-11-28T20:03:19.198Z,0.83
2018-11-28T20:06:23.474Z,0.88
2018-11-28T20:09:27.434Z,0.88
2018-11-28T20:12:31.393Z,0.83
2018-11-28T20:15:35.346Z,0.83
2018-11-28T20:18:39.648Z,0.85
2018-11-28T20:21:43.607Z,0.84
2018-11-28T20:24:47.570Z,0.88
2018-11-28T20:27:54.121Z,0.92
2018-11-28T20:30:58.094Z,0.96
2018-11-28T20:34:02.398Z,0.93
2018-11-28T20:37:06.359Z,0.90
2018-11-28T20:40:15.213Z,0.92
2018-11-28T20:43:19.354Z,0.95
2018-11-28T20:46:23.408Z,0.94
2018-11-28T20:49:27.647Z,0.99
2018-11-28T20:52:31.604Z,1.02
2018-11-28T20:55:35.791Z,0.97
2018-11-28T20:58:40.102Z,0.96
2018-11-28T21:01:44.077Z,0.95
2018-11-28T21:04:48.031Z,0.94
2018-11-28T21:07:52.166Z,0.97
2018-11-28T21:10:56.132Z,0.95
2018-11-28T21:14:00.105Z,0.99
2018-11-28T21:17:04.070Z,0.95
2018-11-28T21:20:11.607Z,0.98
2018-11-28T21:23:17.048Z,0.99
2018-11-28T21:26:21.018Z,0.97
2018-11-28T21:29:24.971Z,0.98
2018-11-28T21:32:28.962Z,1.00
2018-11-28T21:35:35.248Z,1.05
2018-11-28T21:38:39.227Z,1.06
2018-11-28T21:41:43.198Z,1.04
2018-11-28T21:44:47.193Z,1.03
2018-11-28T21:47:51.197Z,1.01
2018-11-28T21:50:55.153Z,1.03
2018-11-28T21:53:59.108Z,0.98
2018-11-28T21:57:03.071Z,0.97
2018-11-28T22:00:10.791Z,0.99
2018-11-28T22:03:14.952Z,0.98
2018-11-28T22:06:18.909Z,0.96
2018-11-28T22:09:22.879Z,0.91
2018-11-28T22:12:26.841Z,0.92
2018-11-28T22:15:30.800Z,0.90
2018-11-28T22:18:34.759Z,0.94
2018-11-28T22:21:38.725Z,0.86
2018-11-28T22:24:42.678Z,0.91
2018-11-28T22:27:46.978Z,0.78
2018-11-28T22:30:50.952Z,0.86
2018-11-28T22:33:54.917Z,0.81
2018-11-28T22:36:58.907Z,0.80
2018-11-28T22:40:02.918Z,0.81
2018-11-28T22:43:06.883Z,0.75
2018-11-28T22:46:10.830Z,0.73
2018-11-28T22:49:14.803Z,0.77
2018-11-28T22:52:18.758Z,0.80
2018-11-28T22:55:22.729Z,0.82
2018-11-28T22:58:26.695Z,0.90
2018-11-28T23:01:38.875Z,0.87
2018-11-28T23:04:42.834Z,0.91
2018-11-28T23:07:46.794Z,0.86
2018-11-28T23:10:51.758Z,0.95
2018-11-28T23:13:55.718Z,0.91
2018-11-28T23:16:59.670Z,0.94
2018-11-28T23:20:03.882Z,0.98
2018-11-28T23:23:08.479Z,1.02
2018-11-28T23:26:12.441Z,0.96
2018-11-28T23:29:16.578Z,1.00
2018-11-28T23:32:20.543Z,1.00
2018-11-28T23:35:25.332Z,1.01
2018-11-28T23:38:29.294Z,0.99
2018-11-28T23:41:33.266Z,1.04
2018-11-28T23:44:37.238Z,1.04
2018-11-28T23:47:41.209Z,1.11
2018-11-28T23:50:45.358Z,1.07
2018-11-28T23:53:49.321Z,1.08
2018-11-28T23:56:53.291Z,1.09
2018-11-28T23:59:57.505Z,1.10
